Pacific Journey — 3FFE — position and weather

sailwx.info

Track history (hours):
 
Tides and Currents Weather Stations Pressure Air Temp Water Temp Dewpoint Dewpoint Depression Visibility Wind Speed Wind Dir Waves Ship Positions

Pacific Journey

Last reported at 2017-Jul-25 08:04 UTC. Time now 2017-Nov-18 14:12 UTC.
Position S 29°42' W 046°36'.
Warning: this ship's position is months out of date.

Length 180 m; draft 10.5 m.

Type: Cargo ship. MMSI: 371467000.

Date/timePositionNaut miles runAvg speedWind from/ knotsBaromVisibWave heightAir tempDewpointWater temp
2017-Jul-25 08:04S 29°42' W 046°36'112.5
2017-Jul-25 08:00S 29°42' W 046°35'612.6
2017-Jul-25 07:30S 29°37' W 046°31'812.8
2017-Jul-25 06:54S 29°31' W 046°25'1012.9
2017-Jul-25 06:07S 29°23' W 046°17'212.7
2017-Jul-25 05:59S 29°22' W 046°16'2612.4
2017-Jul-25 03:52S 29°03' W 045°56'611.6
2017-Jul-25 03:23S 28°58' W 045°52'511.4
2017-Jul-25 02:57S 28°55' W 045°48'2011.4
2017-Jul-25 01:13S 28°40' W 045°33'211.4
2017-Jul-25 01:00S 28°38' W 045°31'611.4
2017-Jul-25 00:30S 28°33' W 045°27'611.4
2017-Jul-25 00:00S 28°29' W 045°23'611.5
2017-Jul-24 23:26S 28°24' W 045°18'511.6
2017-Jul-24 23:00S 28°21' W 045°14'611.6
2017-Jul-24 22:30S 28°16' W 045°10'  
Track history (hours):
 
Tides and Currents Weather Stations Pressure Air Temp Water Temp Dewpoint Dewpoint Depression Visibility Wind Speed Wind Dir Waves Ship Positions

Pacific Journey

Last reported at 2017-Jul-25 08:04 UTC. Time now 2017-Nov-18 14:12 UTC.
Position S 29°42' W 046°36'.
Warning: this ship's position is months out of date.

Length 180 m; draft 10.5 m.

Type: Cargo ship. MMSI: 371467000.

Date/timePositionNaut miles runAvg speedWind from/ knotsBaromVisibWave heightAir tempDewpointWater temp
2017-Jul-25 08:04S 29°42' W 046°36'112.5
2017-Jul-25 08:00S 29°42' W 046°35'612.6
2017-Jul-25 07:30S 29°37' W 046°31'812.8
2017-Jul-25 06:54S 29°31' W 046°25'1012.9
2017-Jul-25 06:07S 29°23' W 046°17'212.7
2017-Jul-25 05:59S 29°22' W 046°16'2612.4
2017-Jul-25 03:52S 29°03' W 045°56'611.6
2017-Jul-25 03:23S 28°58' W 045°52'511.4
2017-Jul-25 02:57S 28°55' W 045°48'2011.4
2017-Jul-25 01:13S 28°40' W 045°33'211.4
2017-Jul-25 01:00S 28°38' W 045°31'611.4
2017-Jul-25 00:30S 28°33' W 045°27'611.4
2017-Jul-25 00:00S 28°29' W 045°23'611.5
2017-Jul-24 23:26S 28°24' W 045°18'511.6
2017-Jul-24 23:00S 28°21' W 045°14'611.6
2017-Jul-24 22:30S 28°16' W 045°10'  

Dump ship's entire track history